sensor_id;sensor_type;location;lat;lon;timestamp;P1;durP1;ratioP1;P2;durP2;ratioP2
27357;SDS011;14831;50.474;7.616;2022-12-10T00:03:02;3.1;;;2.8;;
27357;SDS011;14831;50.474;7.616;2022-12-10T00:08:02;3.1;;;2.8;;
27357;SDS011;14831;50.474;7.616;2022-12-10T00:13:02;3.1;;;2.8;;
27357;SDS011;14831;50.474;7.616;2022-12-10T00:18:02;3.1;;;2.8;;
27357;SDS011;14831;50.474;7.616;2022-12-10T00:23:03;2.9;;;2.7;;
27357;SDS011;14831;50.474;7.616;2022-12-10T00:28:02;2.9;;;2.7;;
27357;SDS011;14831;50.474;7.616;2022-12-10T00:33:02;2.9;;;2.7;;
27357;SDS011;14831;50.474;7.616;2022-12-10T00:38:02;2.9;;;2.7;;
27357;SDS011;14831;50.474;7.616;2022-12-10T00:43:02;2.9;;;2.7;;
27357;SDS011;14831;50.474;7.616;2022-12-10T00:48:02;2.9;;;2.7;;
27357;SDS011;14831;50.474;7.616;2022-12-10T00:53:02;3.3;;;3.0;;
27357;SDS011;14831;50.474;7.616;2022-12-10T00:58:02;3.3;;;3.0;;
27357;SDS011;14831;50.474;7.616;2022-12-10T01:03:02;3.3;;;3.0;;
27357;SDS011;14831;50.474;7.616;2022-12-10T01:08:02;3.3;;;3.0;;
27357;SDS011;14831;50.474;7.616;2022-12-10T01:13:02;3.3;;;3.0;;
27357;SDS011;14831;50.474;7.616;2022-12-10T01:18:02;3.3;;;3.0;;
27357;SDS011;14831;50.474;7.616;2022-12-10T01:23:02;3.4;;;3.1;;
27357;SDS011;14831;50.474;7.616;2022-12-10T01:28:02;3.4;;;3.1;;
27357;SDS011;14831;50.474;7.616;2022-12-10T01:33:02;3.4;;;3.1;;
27357;SDS011;14831;50.474;7.616;2022-12-10T01:38:02;3.4;;;3.1;;
27357;SDS011;14831;50.474;7.616;2022-12-10T01:43:02;3.4;;;3.1;;
27357;SDS011;14831;50.474;7.616;2022-12-10T01:48:02;3.4;;;3.1;;
27357;SDS011;14831;50.474;7.616;2022-12-10T01:53:02;3.2;;;2.9;;
27357;SDS011;14831;50.474;7.616;2022-12-10T01:58:02;3.2;;;2.9;;
27357;SDS011;14831;50.474;7.616;2022-12-10T02:03:10;3.2;;;2.9;;
27357;SDS011;14831;50.474;7.616;2022-12-10T02:08:08;3.2;;;2.9;;
27357;SDS011;14831;50.474;7.616;2022-12-10T02:13:07;3.2;;;2.9;;
27357;SDS011;14831;50.474;7.616;2022-12-10T02:18:06;3.2;;;2.9;;
27357;SDS011;14831;50.474;7.616;2022-12-10T02:23:06;3.1;;;2.9;;
27357;SDS011;14831;50.474;7.616;2022-12-10T02:28:13;3.1;;;2.9;;
27357;SDS011;14831;50.474;7.616;2022-12-10T02:33:05;3.1;;;2.9;;
27357;SDS011;14831;50.474;7.616;2022-12-10T02:38:05;3.1;;;2.9;;
27357;SDS011;14831;50.474;7.616;2022-12-10T02:43:03;3.1;;;2.9;;
27357;SDS011;14831;50.474;7.616;2022-12-10T02:48:04;3.1;;;2.9;;
27357;SDS011;14831;50.474;7.616;2022-12-10T02:53:02;3.5;;;3.2;;
27357;SDS011;14831;50.474;7.616;2022-12-10T02:58:09;3.5;;;3.2;;
27357;SDS011;14831;50.474;7.616;2022-12-10T03:03:14;3.5;;;3.2;;
27357;SDS011;14831;50.474;7.616;2022-12-10T03:08:07;3.5;;;3.2;;
27357;SDS011;14831;50.474;7.616;2022-12-10T03:13:06;3.5;;;3.2;;
27357;SDS011;14831;50.474;7.616;2022-12-10T03:18:03;3.5;;;3.2;;
27357;SDS011;14831;50.474;7.616;2022-12-10T03:23:03;3.7;;;3.4;;
27357;SDS011;14831;50.474;7.616;2022-12-10T03:28:02;3.7;;;3.4;;
27357;SDS011;14831;50.474;7.616;2022-12-10T03:33:03;3.7;;;3.4;;
27357;SDS011;14831;50.474;7.616;2022-12-10T03:38:02;3.7;;;3.4;;
27357;SDS011;14831;50.474;7.616;2022-12-10T03:43:02;3.7;;;3.4;;
27357;SDS011;14831;50.474;7.616;2022-12-10T03:48:02;3.7;;;3.4;;
27357;SDS011;14831;50.474;7.616;2022-12-10T03:53:02;3.7;;;3.4;;
27357;SDS011;14831;50.474;7.616;2022-12-10T03:58:02;3.7;;;3.4;;
27357;SDS011;14831;50.474;7.616;2022-12-10T04:03:02;3.7;;;3.4;;
27357;SDS011;14831;50.474;7.616;2022-12-10T04:08:02;3.7;;;3.4;;
27357;SDS011;14831;50.474;7.616;2022-12-10T04:13:02;3.7;;;3.4;;
27357;SDS011;14831;50.474;7.616;2022-12-10T04:18:02;3.7;;;3.4;;
27357;SDS011;14831;50.474;7.616;2022-12-10T04:23:02;3.7;;;3.3;;
27357;SDS011;14831;50.474;7.616;2022-12-10T04:28:02;3.7;;;3.3;;
27357;SDS011;14831;50.474;7.616;2022-12-10T04:33:02;3.7;;;3.3;;
27357;SDS011;14831;50.474;7.616;2022-12-10T04:38:02;3.7;;;3.3;;
27357;SDS011;14831;50.474;7.616;2022-12-10T04:43:02;3.7;;;3.3;;
27357;SDS011;14831;50.474;7.616;2022-12-10T04:48:02;3.7;;;3.3;;
27357;SDS011;14831;50.474;7.616;2022-12-10T04:53:02;4.0;;;3.6;;
27357;SDS011;14831;50.474;7.616;2022-12-10T04:58:02;4.0;;;3.6;;
27357;SDS011;14831;50.474;7.616;2022-12-10T05:03:02;4.0;;;3.6;;
27357;SDS011;14831;50.474;7.616;2022-12-10T05:08:02;4.0;;;3.6;;
27357;SDS011;14831;50.474;7.616;2022-12-10T05:13:02;4.0;;;3.6;;
27357;SDS011;14831;50.474;7.616;2022-12-10T05:18:02;4.0;;;3.6;;
27357;SDS011;14831;50.474;7.616;2022-12-10T05:23:02;3.7;;;3.4;;
27357;SDS011;14831;50.474;7.616;2022-12-10T05:28:02;3.7;;;3.4;;
27357;SDS011;14831;50.474;7.616;2022-12-10T05:33:02;3.7;;;3.4;;
27357;SDS011;14831;50.474;7.616;2022-12-10T05:38:02;3.7;;;3.4;;
27357;SDS011;14831;50.474;7.616;2022-12-10T05:43:02;3.7;;;3.4;;
27357;SDS011;14831;50.474;7.616;2022-12-10T05:48:02;3.7;;;3.4;;
27357;SDS011;14831;50.474;7.616;2022-12-10T05:53:02;3.5;;;3.2;;
27357;SDS011;14831;50.474;7.616;2022-12-10T05:58:02;3.5;;;3.2;;
27357;SDS011;14831;50.474;7.616;2022-12-10T06:03:02;3.5;;;3.2;;
27357;SDS011;14831;50.474;7.616;2022-12-10T06:08:02;3.5;;;3.2;;
27357;SDS011;14831;50.474;7.616;2022-12-10T06:13:03;3.5;;;3.2;;
27357;SDS011;14831;50.474;7.616;2022-12-10T06:18:02;3.5;;;3.2;;
27357;SDS011;14831;50.474;7.616;2022-12-10T06:23:02;3.4;;;3.1;;
27357;SDS011;14831;50.474;7.616;2022-12-10T06:28:02;3.4;;;3.1;;
27357;SDS011;14831;50.474;7.616;2022-12-10T06:33:02;3.4;;;3.1;;
27357;SDS011;14831;50.474;7.616;2022-12-10T06:38:02;3.4;;;3.1;;
27357;SDS011;14831;50.474;7.616;2022-12-10T06:43:02;3.4;;;3.1;;
27357;SDS011;14831;50.474;7.616;2022-12-10T06:48:02;3.4;;;3.1;;
27357;SDS011;14831;50.474;7.616;2022-12-10T06:53:02;3.1;;;2.9;;
27357;SDS011;14831;50.474;7.616;2022-12-10T06:58:02;3.1;;;2.9;;
27357;SDS011;14831;50.474;7.616;2022-12-10T07:03:02;3.1;;;2.9;;
27357;SDS011;14831;50.474;7.616;2022-12-10T07:08:02;3.1;;;2.9;;
27357;SDS011;14831;50.474;7.616;2022-12-10T07:13:02;3.1;;;2.9;;
27357;SDS011;14831;50.474;7.616;2022-12-10T07:18:02;3.1;;;2.9;;
27357;SDS011;14831;50.474;7.616;2022-12-10T07:23:02;3.4;;;3.1;;
27357;SDS011;14831;50.474;7.616;2022-12-10T07:28:02;3.4;;;3.1;;
27357;SDS011;14831;50.474;7.616;2022-12-10T07:33:02;3.4;;;3.1;;
27357;SDS011;14831;50.474;7.616;2022-12-10T07:38:02;3.4;;;3.1;;
27357;SDS011;14831;50.474;7.616;2022-12-10T07:43:02;3.4;;;3.1;;
27357;SDS011;14831;50.474;7.616;2022-12-10T07:48:02;3.4;;;3.1;;
27357;SDS011;14831;50.474;7.616;2022-12-10T07:53:02;3.1;;;2.8;;
27357;SDS011;14831;50.474;7.616;2022-12-10T07:58:03;3.1;;;2.8;;
27357;SDS011;14831;50.474;7.616;2022-12-10T08:03:02;3.1;;;2.8;;
27357;SDS011;14831;50.474;7.616;2022-12-10T08:08:02;3.1;;;2.8;;
27357;SDS011;14831;50.474;7.616;2022-12-10T08:13:03;3.1;;;2.8;;
27357;SDS011;14831;50.474;7.616;2022-12-10T08:18:02;3.1;;;2.8;;
27357;SDS011;14831;50.474;7.616;2022-12-10T08:23:02;2.7;;;2.5;;
27357;SDS011;14831;50.474;7.616;2022-12-10T08:28:02;2.7;;;2.5;;
27357;SDS011;14831;50.474;7.616;2022-12-10T08:33:02;2.7;;;2.5;;
27357;SDS011;14831;50.474;7.616;2022-12-10T08:38:02;2.7;;;2.5;;
27357;SDS011;14831;50.474;7.616;2022-12-10T08:43:02;2.7;;;2.5;;
27357;SDS011;14831;50.474;7.616;2022-12-10T08:48:02;2.7;;;2.5;;
27357;SDS011;14831;50.474;7.616;2022-12-10T08:53:02;2.7;;;2.5;;
27357;SDS011;14831;50.474;7.616;2022-12-10T08:58:02;2.7;;;2.5;;
27357;SDS011;14831;50.474;7.616;2022-12-10T09:03:03;2.7;;;2.5;;
27357;SDS011;14831;50.474;7.616;2022-12-10T09:08:02;2.7;;;2.5;;
27357;SDS011;14831;50.474;7.616;2022-12-10T09:13:02;2.7;;;2.5;;
27357;SDS011;14831;50.474;7.616;2022-12-10T09:18:02;2.7;;;2.5;;
27357;SDS011;14831;50.474;7.616;2022-12-10T09:23:02;2.5;;;2.3;;
27357;SDS011;14831;50.474;7.616;2022-12-10T09:28:02;2.5;;;2.3;;
27357;SDS011;14831;50.474;7.616;2022-12-10T09:33:02;2.5;;;2.3;;
27357;SDS011;14831;50.474;7.616;2022-12-10T09:38:02;2.5;;;2.3;;
27357;SDS011;14831;50.474;7.616;2022-12-10T09:43:06;2.5;;;2.3;;
27357;SDS011;14831;50.474;7.616;2022-12-10T09:48:13;2.5;;;2.3;;
27357;SDS011;14831;50.474;7.616;2022-12-10T09:53:02;2.6;;;2.4;;
27357;SDS011;14831;50.474;7.616;2022-12-10T09:58:04;2.6;;;2.4;;
27357;SDS011;14831;50.474;7.616;2022-12-10T10:03:03;2.6;;;2.4;;
27357;SDS011;14831;50.474;7.616;2022-12-10T10:08:04;2.6;;;2.4;;
27357;SDS011;14831;50.474;7.616;2022-12-10T10:13:14;2.6;;;2.4;;
27357;SDS011;14831;50.474;7.616;2022-12-10T10:18:11;2.6;;;2.4;;
27357;SDS011;14831;50.474;7.616;2022-12-10T10:23:02;2.9;;;2.6;;
27357;SDS011;14831;50.474;7.616;2022-12-10T10:28:02;2.9;;;2.6;;
27357;SDS011;14831;50.474;7.616;2022-12-10T10:33:08;2.9;;;2.6;;
27357;SDS011;14831;50.474;7.616;2022-12-10T10:38:06;2.9;;;2.6;;
27357;SDS011;14831;50.474;7.616;2022-12-10T10:43:02;2.9;;;2.6;;
27357;SDS011;14831;50.474;7.616;2022-12-10T10:48:08;2.9;;;2.6;;
27357;SDS011;14831;50.474;7.616;2022-12-10T10:53:20;2.9;;;2.6;;
27357;SDS011;14831;50.474;7.616;2022-12-10T10:58:02;2.9;;;2.6;;
27357;SDS011;14831;50.474;7.616;2022-12-10T11:03:05;2.9;;;2.6;;
27357;SDS011;14831;50.474;7.616;2022-12-10T11:08:04;2.9;;;2.6;;
27357;SDS011;14831;50.474;7.616;2022-12-10T11:13:04;2.9;;;2.6;;
27357;SDS011;14831;50.474;7.616;2022-12-10T11:18:07;2.9;;;2.6;;
27357;SDS011;14831;50.474;7.616;2022-12-10T11:23:08;2.8;;;2.6;;
27357;SDS011;14831;50.474;7.616;2022-12-10T11:28:12;2.8;;;2.6;;
27357;SDS011;14831;50.474;7.616;2022-12-10T11:33:14;2.8;;;2.6;;
27357;SDS011;14831;50.474;7.616;2022-12-10T11:38:09;2.8;;;2.6;;
27357;SDS011;14831;50.474;7.616;2022-12-10T11:43:14;2.8;;;2.6;;
27357;SDS011;14831;50.474;7.616;2022-12-10T11:48:12;2.8;;;2.6;;
27357;SDS011;14831;50.474;7.616;2022-12-10T11:53:15;3.0;;;2.7;;
27357;SDS011;14831;50.474;7.616;2022-12-10T11:58:17;3.0;;;2.7;;
27357;SDS011;14831;50.474;7.616;2022-12-10T12:03:14;3.0;;;2.7;;
27357;SDS011;14831;50.474;7.616;2022-12-10T12:08:11;3.0;;;2.7;;
27357;SDS011;14831;50.474;7.616;2022-12-10T12:13:05;3.0;;;2.7;;
27357;SDS011;14831;50.474;7.616;2022-12-10T12:18:05;3.0;;;2.7;;
27357;SDS011;14831;50.474;7.616;2022-12-10T12:23:11;4.4;;;3.6;;
27357;SDS011;14831;50.474;7.616;2022-12-10T12:28:06;4.4;;;3.6;;
27357;SDS011;14831;50.474;7.616;2022-12-10T12:33:08;4.4;;;3.6;;
27357;SDS011;14831;50.474;7.616;2022-12-10T12:38:21;4.4;;;3.6;;
27357;SDS011;14831;50.474;7.616;2022-12-10T12:43:04;4.4;;;3.6;;
27357;SDS011;14831;50.474;7.616;2022-12-10T12:48:13;4.4;;;3.6;;
27357;SDS011;14831;50.474;7.616;2022-12-10T12:53:02;4.3;;;3.9;;
27357;SDS011;14831;50.474;7.616;2022-12-10T12:58:13;4.3;;;3.9;;
27357;SDS011;14831;50.474;7.616;2022-12-10T13:03:13;4.3;;;3.9;;
27357;SDS011;14831;50.474;7.616;2022-12-10T13:08:24;4.3;;;3.9;;
27357;SDS011;14831;50.474;7.616;2022-12-10T13:13:16;4.3;;;3.9;;
27357;SDS011;14831;50.474;7.616;2022-12-10T13:18:19;4.3;;;3.9;;
27357;SDS011;14831;50.474;7.616;2022-12-10T13:23:04;4.6;;;4.2;;
27357;SDS011;14831;50.474;7.616;2022-12-10T13:28:19;4.6;;;4.2;;
27357;SDS011;14831;50.474;7.616;2022-12-10T13:33:13;4.6;;;4.2;;
27357;SDS011;14831;50.474;7.616;2022-12-10T13:38:15;4.6;;;4.2;;
27357;SDS011;14831;50.474;7.616;2022-12-10T13:43:25;4.6;;;4.2;;
27357;SDS011;14831;50.474;7.616;2022-12-10T13:48:26;4.6;;;4.2;;
27357;SDS011;14831;50.474;7.616;2022-12-10T13:53:09;4.8;;;4.3;;
27357;SDS011;14831;50.474;7.616;2022-12-10T13:58:24;4.8;;;4.3;;
27357;SDS011;14831;50.474;7.616;2022-12-10T14:03:17;4.8;;;4.3;;
27357;SDS011;14831;50.474;7.616;2022-12-10T14:08:03;4.8;;;4.3;;
27357;SDS011;14831;50.474;7.616;2022-12-10T14:13:04;4.8;;;4.3;;
27357;SDS011;14831;50.474;7.616;2022-12-10T14:18:04;4.8;;;4.3;;
27357;SDS011;14831;50.474;7.616;2022-12-10T14:23:05;4.7;;;4.3;;
27357;SDS011;14831;50.474;7.616;2022-12-10T14:28:02;4.7;;;4.3;;
27357;SDS011;14831;50.474;7.616;2022-12-10T14:33:02;4.7;;;4.3;;
27357;SDS011;14831;50.474;7.616;2022-12-10T14:38:02;4.7;;;4.3;;
27357;SDS011;14831;50.474;7.616;2022-12-10T14:43:04;4.7;;;4.3;;
27357;SDS011;14831;50.474;7.616;2022-12-10T14:48:04;4.7;;;4.3;;
27357;SDS011;14831;50.474;7.616;2022-12-10T14:53:02;5.8;;;5.0;;
27357;SDS011;14831;50.474;7.616;2022-12-10T14:58:03;5.8;;;5.0;;
27357;SDS011;14831;50.474;7.616;2022-12-10T15:03:09;5.8;;;5.0;;
27357;SDS011;14831;50.474;7.616;2022-12-10T15:08:04;5.8;;;5.0;;
27357;SDS011;14831;50.474;7.616;2022-12-10T15:13:03;5.8;;;5.0;;
27357;SDS011;14831;50.474;7.616;2022-12-10T15:18:09;5.8;;;5.0;;
27357;SDS011;14831;50.474;7.616;2022-12-10T15:23:18;29.6;;;22.8;;
27357;SDS011;14831;50.474;7.616;2022-12-10T15:28:02;29.6;;;22.8;;
27357;SDS011;14831;50.474;7.616;2022-12-10T15:33:02;29.6;;;22.8;;
27357;SDS011;14831;50.474;7.616;2022-12-10T15:38:02;29.6;;;22.8;;
27357;SDS011;14831;50.474;7.616;2022-12-10T15:43:25;29.6;;;22.8;;
27357;SDS011;14831;50.474;7.616;2022-12-10T15:48:07;29.6;;;22.8;;
27357;SDS011;14831;50.474;7.616;2022-12-10T15:53:02;21.2;;;19.0;;
27357;SDS011;14831;50.474;7.616;2022-12-10T15:58:05;21.2;;;19.0;;
27357;SDS011;14831;50.474;7.616;2022-12-10T16:03:03;21.2;;;19.0;;
27357;SDS011;14831;50.474;7.616;2022-12-10T16:08:13;21.2;;;19.0;;
27357;SDS011;14831;50.474;7.616;2022-12-10T16:13:05;21.2;;;19.0;;
27357;SDS011;14831;50.474;7.616;2022-12-10T16:18:02;21.2;;;19.0;;
27357;SDS011;14831;50.474;7.616;2022-12-10T16:23:02;17.5;;;15.8;;
27357;SDS011;14831;50.474;7.616;2022-12-10T16:28:03;17.5;;;15.8;;
27357;SDS011;14831;50.474;7.616;2022-12-10T16:33:02;17.5;;;15.8;;
27357;SDS011;14831;50.474;7.616;2022-12-10T16:38:02;17.5;;;15.8;;
27357;SDS011;14831;50.474;7.616;2022-12-10T16:43:02;17.5;;;15.8;;
27357;SDS011;14831;50.474;7.616;2022-12-10T16:48:03;17.5;;;15.8;;
27357;SDS011;14831;50.474;7.616;2022-12-10T16:53:09;14.0;;;12.7;;
27357;SDS011;14831;50.474;7.616;2022-12-10T16:58:02;14.0;;;12.7;;
27357;SDS011;14831;50.474;7.616;2022-12-10T17:03:02;14.0;;;12.7;;
27357;SDS011;14831;50.474;7.616;2022-12-10T17:08:02;14.0;;;12.7;;
27357;SDS011;14831;50.474;7.616;2022-12-10T17:13:02;14.0;;;12.7;;
27357;SDS011;14831;50.474;7.616;2022-12-10T17:18:02;14.0;;;12.7;;
27357;SDS011;14831;50.474;7.616;2022-12-10T17:23:02;12.4;;;11.1;;
27357;SDS011;14831;50.474;7.616;2022-12-10T17:28:02;12.4;;;11.1;;
27357;SDS011;14831;50.474;7.616;2022-12-10T17:33:02;12.4;;;11.1;;
27357;SDS011;14831;50.474;7.616;2022-12-10T17:38:02;12.4;;;11.1;;
27357;SDS011;14831;50.474;7.616;2022-12-10T17:43:02;12.4;;;11.1;;
27357;SDS011;14831;50.474;7.616;2022-12-10T17:48:02;12.4;;;11.1;;
27357;SDS011;14831;50.474;7.616;2022-12-10T17:53:04;12.1;;;10.9;;
27357;SDS011;14831;50.474;7.616;2022-12-10T17:58:02;12.1;;;10.9;;
27357;SDS011;14831;50.474;7.616;2022-12-10T18:03:03;12.1;;;10.9;;
27357;SDS011;14831;50.474;7.616;2022-12-10T18:08:02;12.1;;;10.9;;
27357;SDS011;14831;50.474;7.616;2022-12-10T18:13:02;12.1;;;10.9;;
27357;SDS011;14831;50.474;7.616;2022-12-10T18:18:02;12.1;;;10.9;;
27357;SDS011;14831;50.474;7.616;2022-12-10T18:23:05;11.0;;;9.9;;
27357;SDS011;14831;50.474;7.616;2022-12-10T18:28:04;11.0;;;9.9;;
27357;SDS011;14831;50.474;7.616;2022-12-10T18:33:02;11.0;;;9.9;;
27357;SDS011;14831;50.474;7.616;2022-12-10T18:38:02;11.0;;;9.9;;
27357;SDS011;14831;50.474;7.616;2022-12-10T18:43:02;11.0;;;9.9;;
27357;SDS011;14831;50.474;7.616;2022-12-10T18:48:03;11.0;;;9.9;;
27357;SDS011;14831;50.474;7.616;2022-12-10T18:53:02;9.6;;;8.7;;
27357;SDS011;14831;50.474;7.616;2022-12-10T18:58:02;9.6;;;8.7;;
27357;SDS011;14831;50.474;7.616;2022-12-10T19:03:03;9.6;;;8.7;;
27357;SDS011;14831;50.474;7.616;2022-12-10T19:08:02;9.6;;;8.7;;
27357;SDS011;14831;50.474;7.616;2022-12-10T19:13:02;9.6;;;8.7;;
27357;SDS011;14831;50.474;7.616;2022-12-10T19:18:02;9.6;;;8.7;;
27357;SDS011;14831;50.474;7.616;2022-12-10T19:23:02;9.4;;;8.5;;
27357;SDS011;14831;50.474;7.616;2022-12-10T19:28:02;9.4;;;8.5;;
27357;SDS011;14831;50.474;7.616;2022-12-10T19:33:02;9.4;;;8.5;;
27357;SDS011;14831;50.474;7.616;2022-12-10T19:38:02;9.4;;;8.5;;
27357;SDS011;14831;50.474;7.616;2022-12-10T19:43:02;9.4;;;8.5;;
27357;SDS011;14831;50.474;7.616;2022-12-10T19:48:02;9.4;;;8.5;;
27357;SDS011;14831;50.474;7.616;2022-12-10T19:53:03;8.9;;;8.0;;
27357;SDS011;14831;50.474;7.616;2022-12-10T19:58:02;8.9;;;8.0;;
27357;SDS011;14831;50.474;7.616;2022-12-10T20:03:02;8.9;;;8.0;;
27357;SDS011;14831;50.474;7.616;2022-12-10T20:08:02;8.9;;;8.0;;
27357;SDS011;14831;50.474;7.616;2022-12-10T20:13:02;8.9;;;8.0;;
27357;SDS011;14831;50.474;7.616;2022-12-10T20:18:02;8.9;;;8.0;;
27357;SDS011;14831;50.474;7.616;2022-12-10T20:23:02;8.3;;;7.5;;
27357;SDS011;14831;50.474;7.616;2022-12-10T20:28:02;8.3;;;7.5;;
27357;SDS011;14831;50.474;7.616;2022-12-10T20:33:02;8.3;;;7.5;;
27357;SDS011;14831;50.474;7.616;2022-12-10T20:38:02;8.3;;;7.5;;
27357;SDS011;14831;50.474;7.616;2022-12-10T20:43:02;8.3;;;7.5;;
27357;SDS011;14831;50.474;7.616;2022-12-10T20:48:02;8.3;;;7.5;;
27357;SDS011;14831;50.474;7.616;2022-12-10T20:53:02;7.9;;;7.2;;
27357;SDS011;14831;50.474;7.616;2022-12-10T20:58:02;7.9;;;7.2;;
27357;SDS011;14831;50.474;7.616;2022-12-10T21:03:02;7.9;;;7.2;;
27357;SDS011;14831;50.474;7.616;2022-12-10T21:08:02;7.9;;;7.2;;
27357;SDS011;14831;50.474;7.616;2022-12-10T21:13:03;7.9;;;7.2;;
27357;SDS011;14831;50.474;7.616;2022-12-10T21:18:02;7.9;;;7.2;;
27357;SDS011;14831;50.474;7.616;2022-12-10T21:23:02;7.7;;;7.0;;
27357;SDS011;14831;50.474;7.616;2022-12-10T21:28:03;7.7;;;7.0;;
27357;SDS011;14831;50.474;7.616;2022-12-10T21:33:02;7.7;;;7.0;;
27357;SDS011;14831;50.474;7.616;2022-12-10T21:38:02;7.7;;;7.0;;
27357;SDS011;14831;50.474;7.616;2022-12-10T21:43:02;7.7;;;7.0;;
27357;SDS011;14831;50.474;7.616;2022-12-10T21:48:02;7.7;;;7.0;;
27357;SDS011;14831;50.474;7.616;2022-12-10T21:53:02;7.8;;;7.0;;
27357;SDS011;14831;50.474;7.616;2022-12-10T21:58:02;7.8;;;7.0;;
27357;SDS011;14831;50.474;7.616;2022-12-10T22:03:03;7.8;;;7.0;;
27357;SDS011;14831;50.474;7.616;2022-12-10T22:08:02;7.8;;;7.0;;
27357;SDS011;14831;50.474;7.616;2022-12-10T22:13:02;7.8;;;7.0;;
27357;SDS011;14831;50.474;7.616;2022-12-10T22:18:02;7.8;;;7.0;;
27357;SDS011;14831;50.474;7.616;2022-12-10T22:23:02;7.3;;;6.6;;
27357;SDS011;14831;50.474;7.616;2022-12-10T22:28:02;7.3;;;6.6;;
27357;SDS011;14831;50.474;7.616;2022-12-10T22:33:02;7.3;;;6.6;;
27357;SDS011;14831;50.474;7.616;2022-12-10T22:38:02;7.3;;;6.6;;
27357;SDS011;14831;50.474;7.616;2022-12-10T22:43:02;7.3;;;6.6;;
27357;SDS011;14831;50.474;7.616;2022-12-10T22:48:03;7.3;;;6.6;;
27357;SDS011;14831;50.474;7.616;2022-12-10T22:53:02;7.0;;;6.1;;
27357;SDS011;14831;50.474;7.616;2022-12-10T22:58:02;7.0;;;6.1;;
27357;SDS011;14831;50.474;7.616;2022-12-10T23:03:02;7.0;;;6.1;;
27357;SDS011;14831;50.474;7.616;2022-12-10T23:08:02;7.0;;;6.1;;
27357;SDS011;14831;50.474;7.616;2022-12-10T23:13:02;7.0;;;6.1;;
27357;SDS011;14831;50.474;7.616;2022-12-10T23:18:02;7.0;;;6.1;;
27357;SDS011;14831;50.474;7.616;2022-12-10T23:23:02;7.1;;;6.4;;
27357;SDS011;14831;50.474;7.616;2022-12-10T23:28:02;7.1;;;6.4;;
27357;SDS011;14831;50.474;7.616;2022-12-10T23:33:02;7.1;;;6.4;;
27357;SDS011;14831;50.474;7.616;2022-12-10T23:38:02;7.1;;;6.4;;
27357;SDS011;14831;50.474;7.616;2022-12-10T23:43:02;7.1;;;6.4;;
27357;SDS011;14831;50.474;7.616;2022-12-10T23:48:02;7.1;;;6.4;;
27357;SDS011;14831;50.474;7.616;2022-12-10T23:53:03;6.5;;;5.8;;
27357;SDS011;14831;50.474;7.616;2022-12-10T23:58:02;6.5;;;5.8;;
